sensor_id;sensor_type;location;lat;lon;timestamp;P1;durP1;ratioP1;P2;durP2;ratioP2
69588;SDS011;56792;50.644;17.984;2022-12-29T00:01:47;11.50;;;5.40;;
69588;SDS011;56792;50.644;17.984;2022-12-29T00:04:20;12.50;;;4.80;;
69588;SDS011;56792;50.644;17.984;2022-12-29T00:06:53;8.50;;;4.70;;
69588;SDS011;56792;50.644;17.984;2022-12-29T00:09:27;12.80;;;4.80;;
69588;SDS011;56792;50.644;17.984;2022-12-29T00:12:00;9.60;;;4.40;;
69588;SDS011;56792;50.644;17.984;2022-12-29T00:14:33;9.00;;;4.30;;
69588;SDS011;56792;50.644;17.984;2022-12-29T00:17:22;11.40;;;4.40;;
69588;SDS011;56792;50.644;17.984;2022-12-29T00:19:55;10.70;;;4.40;;
69588;SDS011;56792;50.644;17.984;2022-12-29T00:22:44;12.80;;;4.90;;
69588;SDS011;56792;50.644;17.984;2022-12-29T00:25:35;11.70;;;5.20;;
69588;SDS011;56792;50.644;17.984;2022-12-29T00:28:25;8.20;;;3.80;;
69588;SDS011;56792;50.644;17.984;2022-12-29T00:31:14;7.80;;;3.50;;
69588;SDS011;56792;50.644;17.984;2022-12-29T00:34:18;10.70;;;4.70;;
69588;SDS011;56792;50.644;17.984;2022-12-29T00:37:07;10.30;;;4.00;;
69588;SDS011;56792;50.644;17.984;2022-12-29T00:39:39;8.50;;;4.20;;
69588;SDS011;56792;50.644;17.984;2022-12-29T00:42:29;10.60;;;4.80;;
69588;SDS011;56792;50.644;17.984;2022-12-29T00:45:18;10.40;;;4.60;;
69588;SDS011;56792;50.644;17.984;2022-12-29T00:47:50;8.80;;;4.10;;
69588;SDS011;56792;50.644;17.984;2022-12-29T00:50:22;7.40;;;4.10;;
69588;SDS011;56792;50.644;17.984;2022-12-29T00:52:55;9.50;;;4.20;;
69588;SDS011;56792;50.644;17.984;2022-12-29T00:55:27;8.80;;;4.10;;
69588;SDS011;56792;50.644;17.984;2022-12-29T00:57:59;7.70;;;4.40;;
69588;SDS011;56792;50.644;17.984;2022-12-29T01:00:31;8.40;;;4.50;;
69588;SDS011;56792;50.644;17.984;2022-12-29T01:03:04;7.90;;;4.10;;
69588;SDS011;56792;50.644;17.984;2022-12-29T01:05:38;8.80;;;3.80;;
69588;SDS011;56792;50.644;17.984;2022-12-29T01:08:11;8.00;;;4.20;;
69588;SDS011;56792;50.644;17.984;2022-12-29T01:10:43;9.50;;;4.90;;
69588;SDS011;56792;50.644;17.984;2022-12-29T01:13:15;7.90;;;4.30;;
69588;SDS011;56792;50.644;17.984;2022-12-29T01:15:52;8.70;;;4.80;;
69588;SDS011;56792;50.644;17.984;2022-12-29T01:18:25;8.50;;;4.70;;
69588;SDS011;56792;50.644;17.984;2022-12-29T01:21:02;8.10;;;4.20;;
69588;SDS011;56792;50.644;17.984;2022-12-29T01:23:36;6.90;;;4.50;;
69588;SDS011;56792;50.644;17.984;2022-12-29T01:26:13;8.90;;;4.90;;
69588;SDS011;56792;50.644;17.984;2022-12-29T01:28:47;9.10;;;4.30;;
69588;SDS011;56792;50.644;17.984;2022-12-29T01:31:19;8.50;;;4.60;;
69588;SDS011;56792;50.644;17.984;2022-12-29T01:33:51;11.10;;;4.90;;
69588;SDS011;56792;50.644;17.984;2022-12-29T01:36:25;10.90;;;4.50;;
69588;SDS011;56792;50.644;17.984;2022-12-29T01:38:57;11.70;;;5.30;;
69588;SDS011;56792;50.644;17.984;2022-12-29T01:41:30;12.10;;;5.00;;
69588;SDS011;56792;50.644;17.984;2022-12-29T01:47:07;7.60;;;4.70;;
69588;SDS011;56792;50.644;17.984;2022-12-29T01:49:39;9.90;;;4.20;;
69588;SDS011;56792;50.644;17.984;2022-12-29T01:52:12;10.10;;;5.50;;
69588;SDS011;56792;50.644;17.984;2022-12-29T01:54:49;6.50;;;3.90;;
69588;SDS011;56792;50.644;17.984;2022-12-29T01:57:27;7.30;;;4.60;;
69588;SDS011;56792;50.644;17.984;2022-12-29T02:00:06;8.20;;;4.30;;
69588;SDS011;56792;50.644;17.984;2022-12-29T02:02:45;8.20;;;4.70;;
69588;SDS011;56792;50.644;17.984;2022-12-29T02:05:26;9.80;;;4.50;;
69588;SDS011;56792;50.644;17.984;2022-12-29T02:08:02;10.00;;;4.20;;
69588;SDS011;56792;50.644;17.984;2022-12-29T02:10:38;10.60;;;5.40;;
69588;SDS011;56792;50.644;17.984;2022-12-29T02:13:14;9.80;;;4.60;;
69588;SDS011;56792;50.644;17.984;2022-12-29T02:16:02;8.50;;;4.40;;
69588;SDS011;56792;50.644;17.984;2022-12-29T02:18:53;11.60;;;4.70;;
69588;SDS011;56792;50.644;17.984;2022-12-29T02:21:43;10.30;;;4.30;;
69588;SDS011;56792;50.644;17.984;2022-12-29T02:24:43;8.00;;;4.40;;
69588;SDS011;56792;50.644;17.984;2022-12-29T02:27:50;9.50;;;4.70;;
69588;SDS011;56792;50.644;17.984;2022-12-29T02:30:44;7.70;;;4.30;;
69588;SDS011;56792;50.644;17.984;2022-12-29T02:33:33;8.90;;;4.30;;
69588;SDS011;56792;50.644;17.984;2022-12-29T02:36:20;7.90;;;4.30;;
69588;SDS011;56792;50.644;17.984;2022-12-29T02:39:10;10.20;;;5.20;;
69588;SDS011;56792;50.644;17.984;2022-12-29T02:41:58;8.20;;;4.80;;
69588;SDS011;56792;50.644;17.984;2022-12-29T02:44:40;10.00;;;4.60;;
69588;SDS011;56792;50.644;17.984;2022-12-29T02:47:26;8.40;;;4.50;;
69588;SDS011;56792;50.644;17.984;2022-12-29T02:50:10;9.80;;;5.20;;
69588;SDS011;56792;50.644;17.984;2022-12-29T02:52:50;8.50;;;5.20;;
69588;SDS011;56792;50.644;17.984;2022-12-29T02:55:25;10.10;;;5.10;;
69588;SDS011;56792;50.644;17.984;2022-12-29T02:58:17;9.40;;;4.60;;
69588;SDS011;56792;50.644;17.984;2022-12-29T03:01:00;9.50;;;4.50;;
69588;SDS011;56792;50.644;17.984;2022-12-29T03:03:51;9.10;;;4.80;;
69588;SDS011;56792;50.644;17.984;2022-12-29T03:06:38;10.80;;;5.00;;
69588;SDS011;56792;50.644;17.984;2022-12-29T03:09:26;7.30;;;4.50;;
69588;SDS011;56792;50.644;17.984;2022-12-29T03:12:13;7.80;;;4.10;;
69588;SDS011;56792;50.644;17.984;2022-12-29T03:15:12;11.60;;;4.30;;
69588;SDS011;56792;50.644;17.984;2022-12-29T03:18:13;9.20;;;4.40;;
69588;SDS011;56792;50.644;17.984;2022-12-29T03:20:54;9.40;;;4.70;;
69588;SDS011;56792;50.644;17.984;2022-12-29T03:23:30;9.60;;;4.50;;
69588;SDS011;56792;50.644;17.984;2022-12-29T03:26:08;6.80;;;4.10;;
69588;SDS011;56792;50.644;17.984;2022-12-29T03:28:45;8.20;;;4.80;;
69588;SDS011;56792;50.644;17.984;2022-12-29T03:31:24;8.30;;;4.50;;
69588;SDS011;56792;50.644;17.984;2022-12-29T03:33:57;7.00;;;3.80;;
69588;SDS011;56792;50.644;17.984;2022-12-29T03:36:39;8.80;;;4.10;;
69588;SDS011;56792;50.644;17.984;2022-12-29T03:39:18;7.50;;;3.90;;
69588;SDS011;56792;50.644;17.984;2022-12-29T03:41:58;9.50;;;4.50;;
69588;SDS011;56792;50.644;17.984;2022-12-29T03:44:37;8.20;;;4.30;;
69588;SDS011;56792;50.644;17.984;2022-12-29T03:47:14;7.40;;;3.80;;
69588;SDS011;56792;50.644;17.984;2022-12-29T03:49:47;6.90;;;3.50;;
69588;SDS011;56792;50.644;17.984;2022-12-29T03:52:20;10.00;;;4.10;;
69588;SDS011;56792;50.644;17.984;2022-12-29T03:54:54;7.50;;;4.40;;
69588;SDS011;56792;50.644;17.984;2022-12-29T03:57:26;10.10;;;5.10;;
69588;SDS011;56792;50.644;17.984;2022-12-29T04:00:03;8.70;;;4.90;;
69588;SDS011;56792;50.644;17.984;2022-12-29T04:02:43;8.40;;;4.50;;
69588;SDS011;56792;50.644;17.984;2022-12-29T04:05:21;8.80;;;4.90;;
69588;SDS011;56792;50.644;17.984;2022-12-29T04:07:56;8.60;;;4.50;;
69588;SDS011;56792;50.644;17.984;2022-12-29T04:10:28;7.60;;;4.70;;
69588;SDS011;56792;50.644;17.984;2022-12-29T04:13:03;9.00;;;4.20;;
69588;SDS011;56792;50.644;17.984;2022-12-29T04:15:35;10.20;;;4.70;;
69588;SDS011;56792;50.644;17.984;2022-12-29T04:18:07;8.50;;;4.40;;
69588;SDS011;56792;50.644;17.984;2022-12-29T04:20:40;7.40;;;4.60;;
69588;SDS011;56792;50.644;17.984;2022-12-29T04:23:38;8.20;;;5.30;;
69588;SDS011;56792;50.644;17.984;2022-12-29T04:26:12;8.70;;;5.20;;
69588;SDS011;56792;50.644;17.984;2022-12-29T04:28:56;8.80;;;4.60;;
69588;SDS011;56792;50.644;17.984;2022-12-29T04:31:47;7.80;;;4.30;;
69588;SDS011;56792;50.644;17.984;2022-12-29T04:34:20;7.30;;;4.50;;
69588;SDS011;56792;50.644;17.984;2022-12-29T04:36:52;8.10;;;5.30;;
69588;SDS011;56792;50.644;17.984;2022-12-29T04:39:24;8.70;;;4.20;;
69588;SDS011;56792;50.644;17.984;2022-12-29T04:41:57;6.90;;;4.50;;
69588;SDS011;56792;50.644;17.984;2022-12-29T04:44:29;8.70;;;4.70;;
69588;SDS011;56792;50.644;17.984;2022-12-29T04:47:25;8.10;;;4.90;;
69588;SDS011;56792;50.644;17.984;2022-12-29T04:50:15;10.60;;;4.80;;
69588;SDS011;56792;50.644;17.984;2022-12-29T04:52:58;8.00;;;4.70;;
69588;SDS011;56792;50.644;17.984;2022-12-29T04:55:30;8.90;;;5.30;;
69588;SDS011;56792;50.644;17.984;2022-12-29T04:58:03;8.80;;;5.10;;
69588;SDS011;56792;50.644;17.984;2022-12-29T05:00:36;10.80;;;5.50;;
69588;SDS011;56792;50.644;17.984;2022-12-29T05:03:08;8.20;;;5.10;;
69588;SDS011;56792;50.644;17.984;2022-12-29T05:05:42;10.60;;;5.70;;
69588;SDS011;56792;50.644;17.984;2022-12-29T05:08:15;10.70;;;5.90;;
69588;SDS011;56792;50.644;17.984;2022-12-29T05:10:49;10.10;;;5.20;;
69588;SDS011;56792;50.644;17.984;2022-12-29T05:13:22;9.90;;;4.50;;
69588;SDS011;56792;50.644;17.984;2022-12-29T05:15:55;9.00;;;5.00;;
69588;SDS011;56792;50.644;17.984;2022-12-29T05:18:28;7.30;;;4.30;;
69588;SDS011;56792;50.644;17.984;2022-12-29T05:21:01;8.80;;;4.60;;
69588;SDS011;56792;50.644;17.984;2022-12-29T05:23:33;8.50;;;4.40;;
69588;SDS011;56792;50.644;17.984;2022-12-29T05:26:08;10.20;;;4.90;;
69588;SDS011;56792;50.644;17.984;2022-12-29T05:28:58;8.50;;;4.80;;
69588;SDS011;56792;50.644;17.984;2022-12-29T05:31:31;9.30;;;4.20;;
69588;SDS011;56792;50.644;17.984;2022-12-29T05:34:05;12.00;;;5.10;;
69588;SDS011;56792;50.644;17.984;2022-12-29T05:36:37;10.50;;;5.10;;
69588;SDS011;56792;50.644;17.984;2022-12-29T05:39:23;8.00;;;5.00;;
69588;SDS011;56792;50.644;17.984;2022-12-29T05:41:59;9.30;;;4.10;;
69588;SDS011;56792;50.644;17.984;2022-12-29T05:44:51;9.40;;;4.90;;
69588;SDS011;56792;50.644;17.984;2022-12-29T05:47:37;8.40;;;4.90;;
69588;SDS011;56792;50.644;17.984;2022-12-29T05:50:31;11.20;;;4.60;;
69588;SDS011;56792;50.644;17.984;2022-12-29T05:53:24;7.90;;;3.90;;
69588;SDS011;56792;50.644;17.984;2022-12-29T05:55:58;7.40;;;4.70;;
69588;SDS011;56792;50.644;17.984;2022-12-29T05:58:30;8.40;;;4.10;;
69588;SDS011;56792;50.644;17.984;2022-12-29T06:01:02;10.30;;;5.10;;
69588;SDS011;56792;50.644;17.984;2022-12-29T06:03:35;7.10;;;3.90;;
69588;SDS011;56792;50.644;17.984;2022-12-29T06:06:07;7.60;;;4.40;;
69588;SDS011;56792;50.644;17.984;2022-12-29T06:08:40;10.90;;;4.40;;
69588;SDS011;56792;50.644;17.984;2022-12-29T06:11:12;11.90;;;4.70;;
69588;SDS011;56792;50.644;17.984;2022-12-29T06:13:51;9.80;;;4.20;;
69588;SDS011;56792;50.644;17.984;2022-12-29T06:16:23;11.40;;;5.90;;
69588;SDS011;56792;50.644;17.984;2022-12-29T06:18:59;8.30;;;4.60;;
69588;SDS011;56792;50.644;17.984;2022-12-29T06:21:32;8.90;;;4.90;;
69588;SDS011;56792;50.644;17.984;2022-12-29T06:24:05;13.10;;;5.70;;
69588;SDS011;56792;50.644;17.984;2022-12-29T06:26:39;10.30;;;4.50;;
69588;SDS011;56792;50.644;17.984;2022-12-29T06:29:12;11.80;;;5.50;;
69588;SDS011;56792;50.644;17.984;2022-12-29T06:31:46;10.00;;;4.30;;
69588;SDS011;56792;50.644;17.984;2022-12-29T06:34:19;12.10;;;4.90;;
69588;SDS011;56792;50.644;17.984;2022-12-29T06:36:52;9.30;;;4.10;;
69588;SDS011;56792;50.644;17.984;2022-12-29T06:39:24;7.40;;;4.30;;
69588;SDS011;56792;50.644;17.984;2022-12-29T06:42:12;10.00;;;4.60;;
69588;SDS011;56792;50.644;17.984;2022-12-29T06:45:08;7.90;;;4.30;;
69588;SDS011;56792;50.644;17.984;2022-12-29T06:47:41;9.70;;;4.60;;
69588;SDS011;56792;50.644;17.984;2022-12-29T06:50:13;8.50;;;4.60;;
69588;SDS011;56792;50.644;17.984;2022-12-29T06:52:46;9.60;;;5.50;;
69588;SDS011;56792;50.644;17.984;2022-12-29T06:55:18;8.60;;;4.80;;
69588;SDS011;56792;50.644;17.984;2022-12-29T06:57:51;9.60;;;4.90;;
69588;SDS011;56792;50.644;17.984;2022-12-29T07:00:26;9.70;;;4.40;;
69588;SDS011;56792;50.644;17.984;2022-12-29T07:02:58;9.30;;;4.70;;
69588;SDS011;56792;50.644;17.984;2022-12-29T07:05:30;8.40;;;4.20;;
69588;SDS011;56792;50.644;17.984;2022-12-29T07:08:03;9.30;;;4.60;;
69588;SDS011;56792;50.644;17.984;2022-12-29T07:10:35;9.80;;;4.40;;
69588;SDS011;56792;50.644;17.984;2022-12-29T07:13:07;10.80;;;5.10;;
69588;SDS011;56792;50.644;17.984;2022-12-29T07:15:40;8.60;;;5.20;;
69588;SDS011;56792;50.644;17.984;2022-12-29T07:18:12;10.30;;;5.10;;
69588;SDS011;56792;50.644;17.984;2022-12-29T07:20:44;9.90;;;4.10;;
69588;SDS011;56792;50.644;17.984;2022-12-29T07:23:16;9.00;;;5.00;;
69588;SDS011;56792;50.644;17.984;2022-12-29T07:25:48;9.30;;;5.00;;
69588;SDS011;56792;50.644;17.984;2022-12-29T07:28:28;9.90;;;4.50;;
69588;SDS011;56792;50.644;17.984;2022-12-29T07:31:01;8.20;;;4.30;;
69588;SDS011;56792;50.644;17.984;2022-12-29T07:33:34;8.70;;;5.10;;
69588;SDS011;56792;50.644;17.984;2022-12-29T07:36:07;9.50;;;4.90;;
69588;SDS011;56792;50.644;17.984;2022-12-29T07:38:41;10.20;;;5.30;;
69588;SDS011;56792;50.644;17.984;2022-12-29T07:41:14;10.30;;;4.80;;
69588;SDS011;56792;50.644;17.984;2022-12-29T07:43:49;12.20;;;5.30;;
69588;SDS011;56792;50.644;17.984;2022-12-29T07:46:34;8.50;;;5.50;;
69588;SDS011;56792;50.644;17.984;2022-12-29T07:49:07;8.20;;;4.70;;
69588;SDS011;56792;50.644;17.984;2022-12-29T07:51:39;9.20;;;4.60;;
69588;SDS011;56792;50.644;17.984;2022-12-29T07:54:12;8.60;;;4.90;;
69588;SDS011;56792;50.644;17.984;2022-12-29T07:56:47;8.10;;;4.70;;
69588;SDS011;56792;50.644;17.984;2022-12-29T07:59:20;9.20;;;5.00;;
69588;SDS011;56792;50.644;17.984;2022-12-29T08:01:52;10.00;;;5.80;;
69588;SDS011;56792;50.644;17.984;2022-12-29T08:04:25;9.50;;;5.50;;
69588;SDS011;56792;50.644;17.984;2022-12-29T08:06:57;10.10;;;5.20;;
69588;SDS011;56792;50.644;17.984;2022-12-29T08:09:30;12.10;;;5.60;;
69588;SDS011;56792;50.644;17.984;2022-12-29T08:12:02;15.20;;;6.10;;
69588;SDS011;56792;50.644;17.984;2022-12-29T08:14:34;17.70;;;6.70;;
69588;SDS011;56792;50.644;17.984;2022-12-29T08:17:07;12.20;;;4.90;;
69588;SDS011;56792;50.644;17.984;2022-12-29T08:19:39;12.50;;;6.00;;
69588;SDS011;56792;50.644;17.984;2022-12-29T08:22:14;10.20;;;4.70;;
69588;SDS011;56792;50.644;17.984;2022-12-29T08:24:46;10.40;;;5.40;;
69588;SDS011;56792;50.644;17.984;2022-12-29T08:27:22;11.20;;;5.70;;
69588;SDS011;56792;50.644;17.984;2022-12-29T08:29:56;12.40;;;4.70;;
69588;SDS011;56792;50.644;17.984;2022-12-29T08:32:29;12.00;;;6.10;;
69588;SDS011;56792;50.644;17.984;2022-12-29T08:35:02;12.90;;;6.00;;
69588;SDS011;56792;50.644;17.984;2022-12-29T08:37:35;15.10;;;7.20;;
69588;SDS011;56792;50.644;17.984;2022-12-29T08:40:10;15.10;;;6.60;;
69588;SDS011;56792;50.644;17.984;2022-12-29T08:42:45;16.10;;;6.10;;
69588;SDS011;56792;50.644;17.984;2022-12-29T08:45:17;11.50;;;6.00;;
69588;SDS011;56792;50.644;17.984;2022-12-29T08:47:51;12.50;;;6.40;;
69588;SDS011;56792;50.644;17.984;2022-12-29T08:50:24;10.00;;;5.10;;
69588;SDS011;56792;50.644;17.984;2022-12-29T08:52:58;10.90;;;5.70;;
69588;SDS011;56792;50.644;17.984;2022-12-29T08:55:33;11.50;;;5.60;;
69588;SDS011;56792;50.644;17.984;2022-12-29T08:58:06;14.30;;;6.60;;
69588;SDS011;56792;50.644;17.984;2022-12-29T09:00:44;10.80;;;5.70;;
69588;SDS011;56792;50.644;17.984;2022-12-29T09:03:17;12.20;;;6.70;;
69588;SDS011;56792;50.644;17.984;2022-12-29T09:05:51;11.10;;;6.00;;
69588;SDS011;56792;50.644;17.984;2022-12-29T09:08:25;11.50;;;6.70;;
69588;SDS011;56792;50.644;17.984;2022-12-29T09:11:07;10.30;;;5.60;;
69588;SDS011;56792;50.644;17.984;2022-12-29T09:13:41;9.00;;;6.00;;
69588;SDS011;56792;50.644;17.984;2022-12-29T09:16:15;11.90;;;6.60;;
69588;SDS011;56792;50.644;17.984;2022-12-29T09:18:48;11.70;;;7.10;;
69588;SDS011;56792;50.644;17.984;2022-12-29T09:21:21;12.30;;;6.30;;
69588;SDS011;56792;50.644;17.984;2022-12-29T09:23:54;11.30;;;6.30;;
69588;SDS011;56792;50.644;17.984;2022-12-29T09:26:28;11.50;;;6.70;;
69588;SDS011;56792;50.644;17.984;2022-12-29T09:29:04;13.10;;;6.80;;
69588;SDS011;56792;50.644;17.984;2022-12-29T09:31:40;14.30;;;8.40;;
69588;SDS011;56792;50.644;17.984;2022-12-29T09:34:18;14.50;;;7.10;;
69588;SDS011;56792;50.644;17.984;2022-12-29T09:36:54;10.40;;;6.10;;
69588;SDS011;56792;50.644;17.984;2022-12-29T09:39:27;10.50;;;7.00;;
69588;SDS011;56792;50.644;17.984;2022-12-29T09:42:04;11.00;;;6.80;;
69588;SDS011;56792;50.644;17.984;2022-12-29T09:44:51;10.30;;;6.70;;
69588;SDS011;56792;50.644;17.984;2022-12-29T09:47:36;11.00;;;6.40;;
69588;SDS011;56792;50.644;17.984;2022-12-29T09:50:18;11.10;;;6.10;;
69588;SDS011;56792;50.644;17.984;2022-12-29T09:52:58;12.20;;;6.10;;
69588;SDS011;56792;50.644;17.984;2022-12-29T09:55:38;8.00;;;5.60;;
69588;SDS011;56792;50.644;17.984;2022-12-29T09:58:16;9.10;;;5.40;;
69588;SDS011;56792;50.644;17.984;2022-12-29T10:01:00;12.10;;;6.40;;
69588;SDS011;56792;50.644;17.984;2022-12-29T10:03:45;10.90;;;6.60;;
69588;SDS011;56792;50.644;17.984;2022-12-29T10:06:24;12.50;;;6.70;;
69588;SDS011;56792;50.644;17.984;2022-12-29T10:09:06;11.70;;;5.70;;
69588;SDS011;56792;50.644;17.984;2022-12-29T10:12:01;12.10;;;5.70;;
69588;SDS011;56792;50.644;17.984;2022-12-29T10:14:54;14.90;;;6.30;;
69588;SDS011;56792;50.644;17.984;2022-12-29T10:17:39;12.50;;;5.90;;
69588;SDS011;56792;50.644;17.984;2022-12-29T10:20:24;12.80;;;6.20;;
69588;SDS011;56792;50.644;17.984;2022-12-29T10:23:19;9.10;;;5.20;;
69588;SDS011;56792;50.644;17.984;2022-12-29T10:25:59;12.10;;;7.00;;
69588;SDS011;56792;50.644;17.984;2022-12-29T10:28:40;12.80;;;7.00;;
69588;SDS011;56792;50.644;17.984;2022-12-29T10:31:19;11.60;;;7.10;;
69588;SDS011;56792;50.644;17.984;2022-12-29T10:33:59;13.00;;;7.50;;
69588;SDS011;56792;50.644;17.984;2022-12-29T10:36:37;11.80;;;6.70;;
69588;SDS011;56792;50.644;17.984;2022-12-29T10:39:16;13.10;;;7.10;;
69588;SDS011;56792;50.644;17.984;2022-12-29T10:41:57;11.30;;;6.20;;
69588;SDS011;56792;50.644;17.984;2022-12-29T10:44:40;11.90;;;6.30;;
69588;SDS011;56792;50.644;17.984;2022-12-29T10:47:17;12.50;;;6.40;;
69588;SDS011;56792;50.644;17.984;2022-12-29T10:49:53;16.00;;;8.50;;
69588;SDS011;56792;50.644;17.984;2022-12-29T10:52:27;13.00;;;9.00;;
69588;SDS011;56792;50.644;17.984;2022-12-29T10:55:02;9.60;;;6.40;;
69588;SDS011;56792;50.644;17.984;2022-12-29T10:57:46;12.50;;;7.60;;
69588;SDS011;56792;50.644;17.984;2022-12-29T11:00:21;11.70;;;6.90;;
69588;SDS011;56792;50.644;17.984;2022-12-29T11:03:12;12.30;;;6.80;;
69588;SDS011;56792;50.644;17.984;2022-12-29T11:06:12;9.80;;;6.10;;
69588;SDS011;56792;50.644;17.984;2022-12-29T11:08:53;11.30;;;6.90;;
69588;SDS011;56792;50.644;17.984;2022-12-29T11:11:32;11.10;;;6.50;;
69588;SDS011;56792;50.644;17.984;2022-12-29T11:14:14;9.70;;;6.00;;
69588;SDS011;56792;50.644;17.984;2022-12-29T11:16:58;12.40;;;6.10;;
69588;SDS011;56792;50.644;17.984;2022-12-29T11:19:33;10.50;;;6.10;;
69588;SDS011;56792;50.644;17.984;2022-12-29T11:22:20;13.00;;;6.70;;
69588;SDS011;56792;50.644;17.984;2022-12-29T11:25:04;16.60;;;7.20;;
69588;SDS011;56792;50.644;17.984;2022-12-29T11:27:56;12.80;;;6.60;;
69588;SDS011;56792;50.644;17.984;2022-12-29T11:30:33;13.30;;;7.10;;
69588;SDS011;56792;50.644;17.984;2022-12-29T11:33:06;11.40;;;5.80;;
69588;SDS011;56792;50.644;17.984;2022-12-29T11:35:42;9.50;;;5.10;;
69588;SDS011;56792;50.644;17.984;2022-12-29T11:38:23;11.90;;;6.10;;
69588;SDS011;56792;50.644;17.984;2022-12-29T11:41:01;11.90;;;6.50;;
69588;SDS011;56792;50.644;17.984;2022-12-29T11:43:36;10.70;;;5.90;;
69588;SDS011;56792;50.644;17.984;2022-12-29T11:46:18;14.70;;;7.90;;
69588;SDS011;56792;50.644;17.984;2022-12-29T11:48:53;14.40;;;7.20;;
69588;SDS011;56792;50.644;17.984;2022-12-29T11:51:30;13.60;;;7.80;;
69588;SDS011;56792;50.644;17.984;2022-12-29T11:54:17;14.40;;;7.50;;
69588;SDS011;56792;50.644;17.984;2022-12-29T11:56:52;13.80;;;7.10;;
69588;SDS011;56792;50.644;17.984;2022-12-29T11:59:42;13.30;;;7.10;;
69588;SDS011;56792;50.644;17.984;2022-12-29T12:02:32;13.40;;;7.30;;
69588;SDS011;56792;50.644;17.984;2022-12-29T12:05:17;12.80;;;6.70;;
69588;SDS011;56792;50.644;17.984;2022-12-29T12:07:59;14.50;;;7.30;;
69588;SDS011;56792;50.644;17.984;2022-12-29T12:10:42;10.80;;;6.60;;
69588;SDS011;56792;50.644;17.984;2022-12-29T12:13:25;11.60;;;5.90;;
69588;SDS011;56792;50.644;17.984;2022-12-29T12:16:08;11.60;;;6.90;;
69588;SDS011;56792;50.644;17.984;2022-12-29T12:18:47;11.90;;;6.70;;
69588;SDS011;56792;50.644;17.984;2022-12-29T12:21:29;14.70;;;7.00;;
69588;SDS011;56792;50.644;17.984;2022-12-29T12:24:20;12.70;;;6.30;;
69588;SDS011;56792;50.644;17.984;2022-12-29T12:27:14;12.60;;;6.60;;
69588;SDS011;56792;50.644;17.984;2022-12-29T12:29:59;10.90;;;6.30;;
69588;SDS011;56792;50.644;17.984;2022-12-29T12:32:42;11.70;;;5.70;;
69588;SDS011;56792;50.644;17.984;2022-12-29T12:35:26;13.60;;;7.50;;
69588;SDS011;56792;50.644;17.984;2022-12-29T12:38:20;16.70;;;6.70;;
69588;SDS011;56792;50.644;17.984;2022-12-29T12:41:08;13.80;;;7.80;;
69588;SDS011;56792;50.644;17.984;2022-12-29T12:43:46;18.40;;;7.40;;
69588;SDS011;56792;50.644;17.984;2022-12-29T12:46:45;22.80;;;9.40;;
69588;SDS011;56792;50.644;17.984;2022-12-29T12:53:30;14.10;;;6.50;;
69588;SDS011;56792;50.644;17.984;2022-12-29T12:56:37;13.00;;;6.50;;
69588;SDS011;56792;50.644;17.984;2022-12-29T12:59:32;12.00;;;5.90;;
69588;SDS011;56792;50.644;17.984;2022-12-29T13:02:23;11.80;;;6.30;;
69588;SDS011;56792;50.644;17.984;2022-12-29T13:05:28;12.10;;;6.20;;
69588;SDS011;56792;50.644;17.984;2022-12-29T13:08:38;9.60;;;5.50;;
69588;SDS011;56792;50.644;17.984;2022-12-29T13:11:37;11.40;;;5.80;;
69588;SDS011;56792;50.644;17.984;2022-12-29T13:14:30;10.20;;;5.80;;
69588;SDS011;56792;50.644;17.984;2022-12-29T13:17:17;12.30;;;6.50;;
69588;SDS011;56792;50.644;17.984;2022-12-29T13:20:03;9.70;;;6.00;;
69588;SDS011;56792;50.644;17.984;2022-12-29T13:22:53;13.10;;;7.60;;
69588;SDS011;56792;50.644;17.984;2022-12-29T13:25:39;12.80;;;7.60;;
69588;SDS011;56792;50.644;17.984;2022-12-29T13:28:23;13.80;;;8.80;;
69588;SDS011;56792;50.644;17.984;2022-12-29T13:31:10;14.40;;;7.60;;
69588;SDS011;56792;50.644;17.984;2022-12-29T13:33:54;15.10;;;8.20;;
69588;SDS011;56792;50.644;17.984;2022-12-29T13:36:36;18.00;;;8.30;;
69588;SDS011;56792;50.644;17.984;2022-12-29T13:39:15;17.90;;;7.80;;
69588;SDS011;56792;50.644;17.984;2022-12-29T13:41:53;16.30;;;8.00;;
69588;SDS011;56792;50.644;17.984;2022-12-29T13:44:28;13.20;;;7.80;;
69588;SDS011;56792;50.644;17.984;2022-12-29T13:47:13;17.10;;;9.00;;
69588;SDS011;56792;50.644;17.984;2022-12-29T13:49:52;14.20;;;7.90;;
69588;SDS011;56792;50.644;17.984;2022-12-29T13:52:32;16.80;;;8.60;;
69588;SDS011;56792;50.644;17.984;2022-12-29T13:55:23;14.70;;;6.80;;
69588;SDS011;56792;50.644;17.984;2022-12-29T13:58:05;12.10;;;7.50;;
69588;SDS011;56792;50.644;17.984;2022-12-29T14:00:52;15.20;;;8.10;;
69588;SDS011;56792;50.644;17.984;2022-12-29T14:03:49;17.20;;;8.10;;
69588;SDS011;56792;50.644;17.984;2022-12-29T14:06:25;16.90;;;8.50;;
69588;SDS011;56792;50.644;17.984;2022-12-29T14:09:01;14.60;;;7.70;;
69588;SDS011;56792;50.644;17.984;2022-12-29T14:11:37;12.60;;;7.00;;
69588;SDS011;56792;50.644;17.984;2022-12-29T14:14:21;11.40;;;6.50;;
69588;SDS011;56792;50.644;17.984;2022-12-29T14:16:56;13.80;;;7.90;;
69588;SDS011;56792;50.644;17.984;2022-12-29T14:19:43;11.60;;;6.20;;
69588;SDS011;56792;50.644;17.984;2022-12-29T14:22:24;13.60;;;7.10;;
69588;SDS011;56792;50.644;17.984;2022-12-29T14:24:58;14.80;;;7.20;;
69588;SDS011;56792;50.644;17.984;2022-12-29T14:27:53;14.50;;;7.50;;
69588;SDS011;56792;50.644;17.984;2022-12-29T14:30:50;14.60;;;8.00;;
69588;SDS011;56792;50.644;17.984;2022-12-29T14:33:25;13.90;;;7.20;;
69588;SDS011;56792;50.644;17.984;2022-12-29T14:36:20;15.50;;;7.90;;
69588;SDS011;56792;50.644;17.984;2022-12-29T14:38:56;14.90;;;7.40;;
69588;SDS011;56792;50.644;17.984;2022-12-29T14:41:32;13.50;;;7.10;;
69588;SDS011;56792;50.644;17.984;2022-12-29T14:44:18;14.00;;;7.60;;
69588;SDS011;56792;50.644;17.984;2022-12-29T14:46:57;14.80;;;7.40;;
69588;SDS011;56792;50.644;17.984;2022-12-29T14:49:41;16.30;;;7.80;;
69588;SDS011;56792;50.644;17.984;2022-12-29T14:52:22;18.00;;;7.80;;
69588;SDS011;56792;50.644;17.984;2022-12-29T14:54:58;14.00;;;7.50;;
69588;SDS011;56792;50.644;17.984;2022-12-29T14:57:53;13.50;;;7.30;;
69588;SDS011;56792;50.644;17.984;2022-12-29T15:00:33;14.20;;;7.00;;
69588;SDS011;56792;50.644;17.984;2022-12-29T15:03:07;13.20;;;7.70;;
69588;SDS011;56792;50.644;17.984;2022-12-29T15:05:48;22.20;;;11.90;;
69588;SDS011;56792;50.644;17.984;2022-12-29T15:08:29;18.30;;;10.00;;
69588;SDS011;56792;50.644;17.984;2022-12-29T15:11:12;16.20;;;8.80;;
69588;SDS011;56792;50.644;17.984;2022-12-29T15:13:47;14.60;;;8.60;;
69588;SDS011;56792;50.644;17.984;2022-12-29T15:16:29;13.00;;;7.00;;
69588;SDS011;56792;50.644;17.984;2022-12-29T15:19:02;14.20;;;6.90;;
69588;SDS011;56792;50.644;17.984;2022-12-29T15:21:51;16.00;;;8.50;;
69588;SDS011;56792;50.644;17.984;2022-12-29T15:24:25;16.50;;;7.70;;
69588;SDS011;56792;50.644;17.984;2022-12-29T15:26:57;16.80;;;8.10;;
69588;SDS011;56792;50.644;17.984;2022-12-29T15:29:38;13.20;;;8.40;;
69588;SDS011;56792;50.644;17.984;2022-12-29T15:32:28;16.90;;;8.80;;
69588;SDS011;56792;50.644;17.984;2022-12-29T15:35:25;13.60;;;7.70;;
69588;SDS011;56792;50.644;17.984;2022-12-29T15:38:14;23.10;;;10.60;;
69588;SDS011;56792;50.644;17.984;2022-12-29T15:40:57;21.00;;;10.40;;
69588;SDS011;56792;50.644;17.984;2022-12-29T15:43:46;24.60;;;12.60;;
69588;SDS011;56792;50.644;17.984;2022-12-29T15:46:23;18.20;;;11.10;;